Milwaukee, Wisconsin
Traffic Map
Current Weather Conditions
Milwaukee, Wisconsin
Broken Clouds
Broken Clouds
-2°
Feels Like: -6°
Wind Chill: -6° Ceiling: 25000
Heat Index: -2° Visibility: 10mi
Dew Point: -9° Wind: 9mph
Humidity: 58% Direction: 30° (NNE)
Pressure: 30.22in Gusts: 0mph
Raw Report DataKMKE 272052Z 03008KT 10SM SCT026 BKN250 M02/M09 A3022 RMK AO2 SLP243 T10171089 53009
Traffic Incident Summary
Active as of:
Severity:
Category:
InformationThere was an issue retrieving the traffic information for this location. Please try a different location or try again shortly.
Advertisements
Track Severe Weather on mobile